createdAt,value
2022-11-20T00:01:53.886Z,174.07
2022-11-20T00:04:23.930Z,174.63
2022-11-20T00:06:54.621Z,173.40
2022-11-20T00:09:24.455Z,175.43
2022-11-20T00:11:54.253Z,176.00
2022-11-20T00:14:24.192Z,176.80
2022-11-20T00:16:55.215Z,176.75
2022-11-20T00:19:24.784Z,183.23
2022-11-20T00:21:55.997Z,182.30
2022-11-20T00:24:25.797Z,175.07
2022-11-20T00:26:54.099Z,174.48
2022-11-20T00:29:23.101Z,173.85
2022-11-20T00:31:51.901Z,187.43
2022-11-20T00:34:20.163Z,186.00
2022-11-20T00:36:51.065Z,175.32
2022-11-20T00:39:19.690Z,174.73
2022-11-20T00:41:49.707Z,174.10
2022-11-20T00:44:19.169Z,175.20
2022-11-20T00:46:49.807Z,175.88
2022-11-20T00:49:18.385Z,184.35
2022-11-20T00:51:49.314Z,174.23
2022-11-20T00:54:20.218Z,182.57
2022-11-20T00:56:49.753Z,176.48
2022-11-20T00:59:18.089Z,181.15
2022-11-20T01:01:47.746Z,175.52
2022-11-20T01:04:17.163Z,173.23
2022-11-20T01:06:46.740Z,191.25
2022-11-20T01:09:16.517Z,183.38
2022-11-20T01:11:48.797Z,173.50
2022-11-20T01:14:21.628Z,183.95
2022-11-20T01:16:53.547Z,182.95
2022-11-20T01:19:25.539Z,173.82
2022-11-20T01:21:56.654Z,172.25
2022-11-20T01:24:25.619Z,170.70
2022-11-20T01:26:57.634Z,173.25
2022-11-20T01:29:27.491Z,172.93
2022-11-20T01:31:58.186Z,175.15
2022-11-20T01:34:27.815Z,173.90
2022-11-20T01:36:58.520Z,173.63
2022-11-20T01:39:29.157Z,175.25
2022-11-20T01:42:16.328Z,175.82
2022-11-20T01:44:53.818Z,171.50
2022-11-20T01:47:33.637Z,172.05
2022-11-20T01:50:08.150Z,171.13
2022-11-20T01:52:44.251Z,172.07
2022-11-20T01:55:19.659Z,170.77
2022-11-20T01:57:52.192Z,170.27
2022-11-20T02:00:22.628Z,171.25
2022-11-20T02:02:57.445Z,173.52
2022-11-20T02:05:34.747Z,171.63
2022-11-20T02:08:05.324Z,170.18
2022-11-20T02:10:35.315Z,170.45
2022-11-20T02:13:24.314Z,174.25
2022-11-20T02:15:54.416Z,171.85
2022-11-20T02:18:25.219Z,172.25
2022-11-20T02:21:08.369Z,171.50
2022-11-20T02:23:45.483Z,169.27
2022-11-20T02:26:18.117Z,170.73
2022-11-20T02:28:48.876Z,172.55
2022-11-20T02:31:17.510Z,171.38
2022-11-20T02:33:46.988Z,170.27
2022-11-20T02:36:18.194Z,172.00
2022-11-20T02:38:49.085Z,171.55
2022-11-20T02:41:20.015Z,172.25
2022-11-20T02:43:49.491Z,171.52
2022-11-20T02:46:17.734Z,172.48
2022-11-20T02:48:46.034Z,170.88
2022-11-20T02:51:14.299Z,170.80
2022-11-20T02:53:45.186Z,171.60
2022-11-20T02:56:15.196Z,172.00
2022-11-20T02:58:47.205Z,171.90
2022-11-20T03:03:46.169Z,171.77
2022-11-20T03:06:15.883Z,171.85
2022-11-20T03:08:45.699Z,169.80
2022-11-20T03:11:14.011Z,171.90
2022-11-20T03:13:46.016Z,172.70
2022-11-20T03:16:18.900Z,175.13
2022-11-20T03:18:50.335Z,170.82
2022-11-20T03:21:19.757Z,173.63
2022-11-20T03:23:51.020Z,168.68
2022-11-20T03:26:22.176Z,170.48
2022-11-20T03:28:57.048Z,169.63
2022-11-20T03:31:29.009Z,170.25
2022-11-20T03:33:59.862Z,172.82
2022-11-20T03:36:29.870Z,169.25
2022-11-20T03:39:01.364Z,172.27
2022-11-20T03:41:32.597Z,186.40
2022-11-20T03:44:06.402Z,175.32
2022-11-20T03:46:35.172Z,169.07
2022-11-20T03:49:05.390Z,169.38
2022-11-20T03:51:35.673Z,169.93
2022-11-20T03:54:08.909Z,175.25
2022-11-20T03:59:13.160Z,175.03
2022-11-20T04:01:45.521Z,171.85
2022-11-20T04:04:18.688Z,170.90
2022-11-20T04:06:48.568Z,170.98
2022-11-20T04:09:18.357Z,170.18
2022-11-20T04:11:46.679Z,171.40
2022-11-20T04:14:17.980Z,172.70
2022-11-20T04:16:47.486Z,173.35
2022-11-20T04:19:19.443Z,172.55
2022-11-20T04:21:47.992Z,172.57
2022-11-20T04:24:17.515Z,172.70
2022-11-20T04:26:45.779Z,172.20
2022-11-20T04:29:15.575Z,171.93
2022-11-20T04:31:45.035Z,175.30
2022-11-20T04:34:16.254Z,172.80
2022-11-20T04:36:45.777Z,175.10
2022-11-20T04:39:15.749Z,171.77
2022-11-20T04:41:44.502Z,172.35
2022-11-20T04:44:14.454Z,171.70
2022-11-20T04:46:45.007Z,172.15
2022-11-20T04:49:13.640Z,171.55
2022-11-20T04:51:43.468Z,173.55
2022-11-20T04:54:15.477Z,174.52
2022-11-20T04:59:14.215Z,172.98
2022-11-20T05:01:46.766Z,174.20
2022-11-20T05:04:17.503Z,173.05
2022-11-20T05:06:47.272Z,172.68
2022-11-20T05:09:15.671Z,170.68
2022-11-20T05:11:46.213Z,173.75
2022-11-20T05:14:18.794Z,172.02
2022-11-20T05:16:49.665Z,172.20
2022-11-20T05:19:19.526Z,172.48
2022-11-20T05:21:49.264Z,173.73
2022-11-20T05:24:17.552Z,172.93
2022-11-20T05:26:47.106Z,173.40
2022-11-20T05:29:15.878Z,172.93
2022-11-20T05:31:44.107Z,172.25
2022-11-20T05:34:16.553Z,170.73
2022-11-20T05:36:44.771Z,176.38
2022-11-20T05:39:13.075Z,171.52
2022-11-20T05:41:42.876Z,172.35
2022-11-20T05:44:13.093Z,172.77
2022-11-20T05:46:42.534Z,174.98
2022-11-20T05:49:13.343Z,171.98
2022-11-20T05:51:44.122Z,171.65
2022-11-20T05:54:13.551Z,171.45
2022-11-20T05:56:42.962Z,169.98
2022-11-20T05:59:13.963Z,171.63
2022-11-20T06:01:42.338Z,172.80
2022-11-20T06:04:10.941Z,174.18
2022-11-20T06:06:40.784Z,173.00
2022-11-20T06:09:11.669Z,173.15
2022-11-20T06:11:40.003Z,173.60
2022-11-20T06:14:09.866Z,170.32
2022-11-20T06:16:38.413Z,172.63
2022-11-20T06:19:07.902Z,175.00
2022-11-20T06:21:37.365Z,173.45
2022-11-20T06:24:07.536Z,172.98
2022-11-20T06:26:38.494Z,175.40
2022-11-20T06:29:08.012Z,174.35
2022-11-20T06:31:38.745Z,172.60
2022-11-20T06:34:09.963Z,173.20
2022-11-20T06:36:38.280Z,172.75
2022-11-20T06:39:09.001Z,173.75
2022-11-20T06:41:38.626Z,170.93
2022-11-20T06:44:09.373Z,172.65
2022-11-20T06:46:38.810Z,172.32
2022-11-20T06:49:08.535Z,171.80
2022-11-20T06:51:36.841Z,171.48
2022-11-20T06:54:05.268Z,173.07
2022-11-20T06:56:34.684Z,172.48
2022-11-20T06:59:09.082Z,171.70
2022-11-20T07:01:38.628Z,170.82
2022-11-20T07:04:08.578Z,171.27
2022-11-20T07:06:37.126Z,171.02
2022-11-20T07:09:22.082Z,171.35
2022-11-20T07:11:50.459Z,171.10
2022-11-20T07:14:22.516Z,172.25
2022-11-20T07:19:22.041Z,172.85
2022-11-20T07:21:50.448Z,174.75
2022-11-20T07:24:19.884Z,174.98
2022-11-20T07:26:50.100Z,173.45
2022-11-20T07:29:21.215Z,177.27
2022-11-20T07:31:50.941Z,174.45
2022-11-20T07:34:19.326Z,174.30
2022-11-20T07:36:47.628Z,176.77
2022-11-20T07:39:17.200Z,182.38
2022-11-20T07:41:45.515Z,180.07
2022-11-20T07:44:15.152Z,181.75
2022-11-20T07:46:44.792Z,183.95
2022-11-20T07:49:13.045Z,183.48
2022-11-20T07:51:41.312Z,185.82
2022-11-20T07:54:10.745Z,183.98
2022-11-20T07:56:38.956Z,183.82
2022-11-20T07:59:08.445Z,185.88
2022-11-20T08:01:36.746Z,186.57
2022-11-20T08:04:07.928Z,188.38
2022-11-20T08:06:36.409Z,182.37
2022-11-20T08:09:06.226Z,184.90
2022-11-20T08:11:52.230Z,191.82
2022-11-20T08:14:23.037Z,185.68
2022-11-20T08:16:52.029Z,184.70
2022-11-20T08:19:22.191Z,185.00
2022-11-20T08:21:51.020Z,189.50
2022-11-20T08:24:19.297Z,190.50
2022-11-20T08:26:47.847Z,190.52
2022-11-20T08:29:17.318Z,208.20
2022-11-20T08:31:45.605Z,192.82
2022-11-20T08:34:19.145Z,194.60
2022-11-20T08:36:50.535Z,192.45
2022-11-20T08:39:20.452Z,192.18
2022-11-20T08:41:49.062Z,189.68
2022-11-20T08:44:19.714Z,191.85
2022-11-20T08:46:49.532Z,194.20
2022-11-20T08:49:20.620Z,191.00
2022-11-20T08:51:54.669Z,188.90
2022-11-20T08:54:23.663Z,193.98
2022-11-20T08:56:52.292Z,199.32
2022-11-20T09:02:10.636Z,196.85
2022-11-20T09:04:38.965Z,193.32
2022-11-20T09:07:08.729Z,195.13
2022-11-20T09:09:39.510Z,197.43
2022-11-20T09:12:09.066Z,194.68
2022-11-20T09:14:38.504Z,196.52
2022-11-20T09:17:08.695Z,200.40
2022-11-20T09:19:39.428Z,201.10
2022-11-20T09:22:09.390Z,197.85
2022-11-20T09:24:40.322Z,201.03
2022-11-20T09:27:08.624Z,199.32
2022-11-20T09:29:38.450Z,198.30
2022-11-20T09:32:07.502Z,204.88
2022-11-20T09:34:37.072Z,201.80
2022-11-20T09:37:08.066Z,203.90
2022-11-20T09:39:39.816Z,203.73
2022-11-20T09:42:28.845Z,204.27
2022-11-20T09:45:24.023Z,203.30
2022-11-20T09:48:19.693Z,204.80
2022-11-20T09:50:56.727Z,210.57
2022-11-20T09:53:39.844Z,205.55
2022-11-20T09:56:13.742Z,209.85
2022-11-20T09:58:47.640Z,218.18
2022-11-20T10:01:20.997Z,218.55
2022-11-20T10:03:59.226Z,213.63
2022-11-20T10:06:34.331Z,225.75
2022-11-20T10:09:27.805Z,225.60
2022-11-20T10:12:13.490Z,227.75
2022-11-20T10:15:01.082Z,233.82
2022-11-20T10:17:56.133Z,224.65
2022-11-20T10:20:36.286Z,214.27
2022-11-20T10:23:26.381Z,224.38
2022-11-20T10:26:03.608Z,219.48
2022-11-20T10:28:57.116Z,220.45
2022-11-20T10:31:34.313Z,223.60
2022-11-20T10:34:13.047Z,231.55
2022-11-20T10:36:46.361Z,224.15
2022-11-20T10:39:24.639Z,228.60
2022-11-20T10:41:55.888Z,231.55
2022-11-20T10:44:47.868Z,230.52
2022-11-20T10:47:18.844Z,229.93
2022-11-20T10:49:50.946Z,232.15
2022-11-20T10:55:08.897Z,231.23
2022-11-20T10:57:56.062Z,235.95
2022-11-20T11:00:25.533Z,236.77
2022-11-20T11:02:58.392Z,235.60
2022-11-20T11:05:40.816Z,231.32
2022-11-20T11:08:15.810Z,234.90
2022-11-20T11:10:53.374Z,230.35
2022-11-20T11:13:24.302Z,227.25
2022-11-20T11:15:54.442Z,233.35
2022-11-20T11:18:28.787Z,235.15
2022-11-20T11:20:59.798Z,241.52
2022-11-20T11:26:07.902Z,239.50
2022-11-20T11:28:37.715Z,231.00
2022-11-20T11:31:07.363Z,236.85
2022-11-20T11:33:37.262Z,228.07
2022-11-20T11:36:21.263Z,226.82
2022-11-20T11:38:55.244Z,228.60
2022-11-20T11:41:32.643Z,227.10
2022-11-20T11:44:32.959Z,228.70
2022-11-20T11:47:05.332Z,229.57
2022-11-20T11:49:34.844Z,225.50
2022-11-20T11:52:13.161Z,225.88
2022-11-20T11:54:47.900Z,226.65
2022-11-20T11:57:25.817Z,221.85
2022-11-20T12:00:06.669Z,225.13
2022-11-20T12:02:42.539Z,230.85
2022-11-20T12:05:21.787Z,227.07
2022-11-20T12:07:56.270Z,232.50
2022-11-20T12:10:40.105Z,230.70
2022-11-20T12:13:31.718Z,231.18
2022-11-20T12:16:04.691Z,233.25
2022-11-20T12:18:33.910Z,246.18
2022-11-20T12:21:23.376Z,236.18
2022-11-20T12:24:09.265Z,230.57
2022-11-20T12:26:57.658Z,228.73
2022-11-20T12:29:42.386Z,234.75
2022-11-20T12:32:53.508Z,239.82
2022-11-20T12:35:45.200Z,238.15
2022-11-20T12:38:53.155Z,251.35
2022-11-20T12:42:00.636Z,245.90
2022-11-20T12:45:13.097Z,242.35
2022-11-20T12:48:17.740Z,231.35
2022-11-20T12:51:17.677Z,232.90
2022-11-20T12:54:00.493Z,228.20
2022-11-20T12:56:43.231Z,230.05
2022-11-20T12:59:33.219Z,229.02
2022-11-20T13:02:14.659Z,227.70
2022-11-20T13:05:18.922Z,224.55
2022-11-20T13:07:49.828Z,226.48
2022-11-20T13:10:26.557Z,232.27
2022-11-20T13:13:03.663Z,229.57
2022-11-20T13:15:49.490Z,227.15
2022-11-20T13:18:19.909Z,225.20
2022-11-20T13:20:50.695Z,219.05
2022-11-20T13:23:27.824Z,221.23
2022-11-20T13:26:08.825Z,223.73
2022-11-20T13:28:38.636Z,225.93
2022-11-20T13:31:27.316Z,237.63
2022-11-20T13:33:57.572Z,232.52
2022-11-20T13:36:35.960Z,233.98
2022-11-20T13:39:04.758Z,232.30
2022-11-20T13:41:37.612Z,228.80
2022-11-20T13:44:16.787Z,232.98
2022-11-20T13:46:49.271Z,235.85
2022-11-20T13:49:24.793Z,237.40
2022-11-20T13:52:06.251Z,233.27
2022-11-20T13:55:03.040Z,231.23
2022-11-20T13:58:17.850Z,228.55
2022-11-20T14:00:55.095Z,223.05
2022-11-20T14:03:58.499Z,232.02
2022-11-20T14:06:25.548Z,236.85
2022-11-20T14:08:55.934Z,231.18
2022-11-20T14:11:28.138Z,229.63
2022-11-20T14:16:30.592Z,224.70
2022-11-20T14:19:29.278Z,226.18
2022-11-20T14:22:11.776Z,224.15
2022-11-20T14:24:42.915Z,225.02
2022-11-20T14:27:17.738Z,217.95
2022-11-20T14:29:51.133Z,222.48
2022-11-20T14:34:52.802Z,220.63
2022-11-20T14:37:26.656Z,221.73
2022-11-20T14:39:59.869Z,223.38
2022-11-20T14:42:32.955Z,226.18
2022-11-20T14:45:02.889Z,231.55
2022-11-20T14:47:34.229Z,223.95
2022-11-20T14:50:08.789Z,224.38
2022-11-20T14:52:38.233Z,220.40
2022-11-20T14:55:16.065Z,216.77
2022-11-20T14:57:44.353Z,215.45
2022-11-20T15:00:23.630Z,215.38
2022-11-20T15:02:53.846Z,213.75
2022-11-20T15:05:26.512Z,219.75
2022-11-20T15:08:11.561Z,218.90
2022-11-20T15:10:49.775Z,210.95
2022-11-20T15:13:28.930Z,209.23
2022-11-20T15:16:00.753Z,215.75
2022-11-20T15:18:33.434Z,207.75
2022-11-20T15:21:05.330Z,211.77
2022-11-20T15:23:34.753Z,206.13
2022-11-20T15:26:08.030Z,212.15
2022-11-20T15:28:40.077Z,209.70
2022-11-20T15:31:13.919Z,213.43
2022-11-20T15:33:44.398Z,206.38
2022-11-20T15:36:14.080Z,208.55
2022-11-20T15:38:43.857Z,208.88
2022-11-20T15:41:14.810Z,205.68
2022-11-20T15:43:46.002Z,200.90
2022-11-20T15:46:19.289Z,200.20
2022-11-20T15:48:53.949Z,205.70
2022-11-20T15:51:28.871Z,202.98
2022-11-20T15:53:59.334Z,204.75
2022-11-20T15:56:31.525Z,201.10
2022-11-20T15:59:00.056Z,210.35
2022-11-20T16:01:28.605Z,206.85
2022-11-20T16:03:56.883Z,212.15
2022-11-20T16:06:25.123Z,209.23
2022-11-20T16:08:53.711Z,212.40
2022-11-20T16:11:21.937Z,210.40
2022-11-20T16:14:09.607Z,212.50
2022-11-20T16:16:41.480Z,213.35
2022-11-20T16:19:13.422Z,220.13
2022-11-20T16:21:42.899Z,229.65
2022-11-20T16:24:16.322Z,219.13
2022-11-20T16:26:47.304Z,220.13
2022-11-20T16:29:17.259Z,211.20
2022-11-20T16:31:45.568Z,206.90
2022-11-20T16:34:17.713Z,205.73
2022-11-20T16:36:47.799Z,210.85
2022-11-20T16:39:23.050Z,204.93
2022-11-20T16:41:53.559Z,206.95
2022-11-20T16:44:24.555Z,205.23
2022-11-20T16:46:53.331Z,205.77
2022-11-20T16:49:21.679Z,206.18
2022-11-20T16:51:51.188Z,209.32
2022-11-20T16:54:21.084Z,203.98
2022-11-20T16:56:51.937Z,206.65
2022-11-20T16:59:22.859Z,205.23
2022-11-20T17:01:52.753Z,203.48
2022-11-20T17:04:22.611Z,201.25
2022-11-20T17:06:54.005Z,205.13
2022-11-20T17:09:23.472Z,200.10
2022-11-20T17:11:51.704Z,209.30
2022-11-20T17:14:20.164Z,203.43
2022-11-20T17:16:50.985Z,204.40
2022-11-20T17:19:20.078Z,208.50
2022-11-20T17:21:49.703Z,214.85
2022-11-20T17:24:19.428Z,206.60
2022-11-20T17:26:50.937Z,205.75
2022-11-20T17:29:24.075Z,205.15
2022-11-20T17:31:56.010Z,203.75
2022-11-20T17:34:25.021Z,216.18
2022-11-20T17:36:55.518Z,202.30
2022-11-20T17:39:24.105Z,202.30
2022-11-20T17:42:08.642Z,204.65
2022-11-20T17:44:36.945Z,206.68
2022-11-20T17:47:09.348Z,208.32
2022-11-20T17:49:39.112Z,205.15
2022-11-20T17:52:08.613Z,205.13
2022-11-20T17:54:38.069Z,201.23
2022-11-20T17:57:26.560Z,202.95
2022-11-20T17:59:56.051Z,204.98
2022-11-20T18:02:26.988Z,211.20
2022-11-20T18:04:56.215Z,206.50
2022-11-20T18:07:26.935Z,210.23
2022-11-20T18:09:55.221Z,203.07
2022-11-20T18:12:23.545Z,206.93
2022-11-20T18:14:53.315Z,203.32
2022-11-20T18:17:24.079Z,204.30
2022-11-20T18:20:14.193Z,202.63
2022-11-20T18:22:43.126Z,203.38
2022-11-20T18:25:12.601Z,202.43
2022-11-20T18:27:41.545Z,203.35
2022-11-20T18:30:11.860Z,203.85
2022-11-20T18:32:41.444Z,207.77
2022-11-20T18:35:12.456Z,214.55
2022-11-20T18:37:42.254Z,218.35
2022-11-20T18:40:13.838Z,206.90
2022-11-20T18:42:59.431Z,205.98
2022-11-20T18:45:30.388Z,208.70
2022-11-20T18:47:58.712Z,207.98
2022-11-20T18:50:28.634Z,205.57
2022-11-20T18:52:56.919Z,205.25
2022-11-20T18:55:26.425Z,209.40
2022-11-20T18:57:55.166Z,204.95
2022-11-20T19:00:24.328Z,205.07
2022-11-20T19:02:55.253Z,203.63
2022-11-20T19:05:25.262Z,205.20
2022-11-20T19:07:56.066Z,205.55
2022-11-20T19:10:24.765Z,205.15
2022-11-20T19:12:52.999Z,205.75
2022-11-20T19:15:21.307Z,204.00
2022-11-20T19:17:51.495Z,205.13
2022-11-20T19:20:20.992Z,203.48
2022-11-20T19:22:54.763Z,205.77
2022-11-20T19:25:24.822Z,204.05
2022-11-20T19:27:55.534Z,203.87
2022-11-20T19:30:25.360Z,202.75
2022-11-20T19:32:53.651Z,204.50
2022-11-20T19:35:23.141Z,204.93
2022-11-20T19:37:54.879Z,204.75
2022-11-20T19:40:25.684Z,202.98
2022-11-20T19:42:55.097Z,206.73
2022-11-20T19:45:23.341Z,204.52
2022-11-20T19:48:07.574Z,207.73
2022-11-20T19:50:37.678Z,208.27
2022-11-20T19:53:07.467Z,203.60
2022-11-20T19:55:38.765Z,203.68
2022-11-20T19:58:07.713Z,207.70
2022-11-20T20:00:36.021Z,208.75
2022-11-20T20:03:05.518Z,207.75
2022-11-20T20:05:36.034Z,215.23
2022-11-20T20:08:04.663Z,213.73
2022-11-20T20:10:34.594Z,211.73
2022-11-20T20:13:04.719Z,210.38
2022-11-20T20:15:34.703Z,210.73
2022-11-20T20:18:04.558Z,213.15
2022-11-20T20:20:32.773Z,213.00
2022-11-20T20:23:03.936Z,217.57
2022-11-20T20:25:33.664Z,219.38
2022-11-20T20:28:04.523Z,214.60
2022-11-20T20:30:34.046Z,212.02
2022-11-20T20:33:03.569Z,214.23
2022-11-20T20:35:32.179Z,219.98
2022-11-20T20:38:01.673Z,227.05
2022-11-20T20:40:30.391Z,221.10
2022-11-20T20:42:58.794Z,214.85
2022-11-20T20:45:29.648Z,221.73
2022-11-20T20:48:01.248Z,223.05
2022-11-20T20:50:29.847Z,227.55
2022-11-20T20:52:58.114Z,222.68
2022-11-20T20:55:26.698Z,219.43
2022-11-20T20:57:57.601Z,215.88
2022-11-20T21:00:25.890Z,213.70
2022-11-20T21:02:55.549Z,220.68
2022-11-20T21:05:24.971Z,225.45
2022-11-20T21:08:13.373Z,215.43
2022-11-20T21:10:42.825Z,229.55
2022-11-20T21:13:11.108Z,225.93
2022-11-20T21:15:40.418Z,220.48
2022-11-20T21:18:11.239Z,225.88
2022-11-20T21:20:58.345Z,226.18
2022-11-20T21:23:29.120Z,233.35
2022-11-20T21:26:02.322Z,227.95
2022-11-20T21:28:33.261Z,226.15
2022-11-20T21:31:08.672Z,226.73
2022-11-20T21:33:43.700Z,225.32
2022-11-20T21:36:14.313Z,229.38
2022-11-20T21:38:44.078Z,235.45
2022-11-20T21:41:14.200Z,228.75
2022-11-20T21:43:44.420Z,239.67
2022-11-20T21:46:14.796Z,231.73
2022-11-20T21:48:48.776Z,225.82
2022-11-20T21:51:19.319Z,213.48
2022-11-20T21:53:50.578Z,215.95
2022-11-20T21:56:22.917Z,218.43
2022-11-20T21:58:54.712Z,228.30
2022-11-20T22:01:25.817Z,235.95
2022-11-20T22:03:58.582Z,236.23
2022-11-20T22:06:33.480Z,232.40
2022-11-20T22:09:05.121Z,239.00
2022-11-20T22:11:34.577Z,223.98
2022-11-20T22:14:18.286Z,227.90
2022-11-20T22:16:46.607Z,229.38
2022-11-20T22:19:20.358Z,232.75
2022-11-20T22:21:51.034Z,231.05
2022-11-20T22:24:23.514Z,230.80
2022-11-20T22:26:53.343Z,232.82
2022-11-20T22:29:23.283Z,233.85
2022-11-20T22:31:53.917Z,238.60
2022-11-20T22:34:26.543Z,240.70
2022-11-20T22:36:56.324Z,241.75
2022-11-20T22:39:26.943Z,223.73
2022-11-20T22:41:56.352Z,227.38
2022-11-20T22:44:24.862Z,238.15
2022-11-20T22:46:53.873Z,242.65
2022-11-20T22:49:27.227Z,230.50
2022-11-20T22:51:56.843Z,250.93
2022-11-20T22:54:26.812Z,235.80
2022-11-20T22:56:56.258Z,245.52
2022-11-20T22:59:27.289Z,238.57
2022-11-20T23:01:55.580Z,248.52
2022-11-20T23:04:26.665Z,246.68
2022-11-20T23:06:56.402Z,248.40
2022-11-20T23:09:24.745Z,225.88
2022-11-20T23:11:54.210Z,227.00
2022-11-20T23:14:27.651Z,224.10
2022-11-20T23:16:56.230Z,230.15
2022-11-20T23:19:27.335Z,243.80
2022-11-20T23:21:57.115Z,253.35
2022-11-20T23:24:27.952Z,248.30
2022-11-20T23:26:57.525Z,247.90
2022-11-20T23:29:25.808Z,239.80
2022-11-20T23:31:55.284Z,234.48
2022-11-20T23:34:27.522Z,242.25
2022-11-20T23:36:55.884Z,220.98
2022-11-20T23:39:25.625Z,226.88
2022-11-20T23:41:55.116Z,220.65
2022-11-20T23:44:25.675Z,238.52
2022-11-20T23:46:55.463Z,228.23
2022-11-20T23:49:27.509Z,227.73
2022-11-20T23:51:56.960Z,238.20
2022-11-20T23:54:26.731Z,236.60
2022-11-20T23:56:56.426Z,239.65
2022-11-20T23:59:24.709Z,257.85
